createdAt,value
2023-01-25T00:01:56.127Z,15.07
2023-01-25T00:04:23.413Z,12.63
2023-01-25T00:06:50.721Z,16.47
2023-01-25T00:09:17.909Z,14.57
2023-01-25T00:11:44.920Z,15.83
2023-01-25T00:14:12.700Z,16.63
2023-01-25T00:16:40.039Z,15.17
2023-01-25T00:19:07.959Z,14.27
2023-01-25T00:21:35.232Z,15.13
2023-01-25T00:24:02.623Z,14.47
2023-01-25T00:26:35.751Z,18.00
2023-01-25T00:29:03.476Z,16.53
2023-01-25T00:31:41.878Z,15.27
2023-01-25T00:34:26.302Z,14.43
2023-01-25T00:37:20.603Z,14.47
2023-01-25T00:39:47.455Z,14.53
2023-01-25T00:42:16.093Z,14.53
2023-01-25T00:44:42.962Z,14.63
2023-01-25T00:47:11.273Z,13.23
2023-01-25T00:49:39.500Z,15.03
2023-01-25T00:52:07.190Z,16.70
2023-01-25T00:54:33.905Z,15.97
2023-01-25T00:57:00.516Z,15.30
2023-01-25T00:59:27.072Z,15.03
2023-01-25T01:01:54.466Z,13.57
2023-01-25T01:04:24.983Z,11.53
2023-01-25T01:06:55.958Z,14.93
2023-01-25T01:09:23.536Z,14.37
2023-01-25T01:11:50.325Z,14.63
2023-01-25T01:14:16.902Z,12.57
2023-01-25T01:16:43.511Z,12.80
2023-01-25T01:19:10.157Z,11.97
2023-01-25T01:21:36.802Z,17.13
2023-01-25T01:24:03.497Z,13.20
2023-01-25T01:26:30.198Z,13.37
2023-01-25T01:28:58.478Z,15.07
2023-01-25T01:31:25.596Z,13.13
2023-01-25T01:33:53.830Z,14.07
2023-01-25T01:36:22.934Z,14.37
2023-01-25T01:38:49.960Z,14.57
2023-01-25T01:41:17.530Z,13.20
2023-01-25T01:43:44.113Z,13.40
2023-01-25T01:46:35.075Z,15.23
2023-01-25T01:49:16.341Z,15.90
2023-01-25T01:51:48.321Z,14.53
2023-01-25T01:54:27.389Z,14.30
2023-01-25T01:57:05.988Z,14.17
2023-01-25T01:59:40.343Z,14.00
2023-01-25T02:02:07.350Z,13.40
2023-01-25T02:04:34.296Z,13.07
2023-01-25T02:07:11.164Z,13.97
2023-01-25T02:09:37.882Z,13.80
2023-01-25T02:12:07.575Z,13.73
2023-01-25T02:14:34.686Z,16.50
2023-01-25T02:17:01.422Z,14.00
2023-01-25T02:20:15.703Z,15.87
2023-01-25T02:22:54.996Z,14.90
2023-01-25T02:25:21.915Z,14.50
2023-01-25T02:27:54.417Z,14.30
2023-01-25T02:30:21.648Z,14.50
2023-01-25T02:32:48.689Z,14.47
2023-01-25T02:35:24.983Z,13.70
2023-01-25T02:37:52.141Z,15.10
2023-01-25T02:40:18.905Z,12.50
2023-01-25T02:42:46.324Z,13.53
2023-01-25T02:45:16.648Z,16.00
2023-01-25T02:47:43.196Z,16.43
2023-01-25T02:50:10.619Z,14.43
2023-01-25T02:52:37.202Z,14.10
2023-01-25T02:55:03.957Z,14.83
2023-01-25T02:57:30.513Z,14.67
2023-01-25T02:59:57.072Z,15.73
2023-01-25T03:02:23.759Z,14.80
2023-01-25T03:04:51.129Z,15.77
2023-01-25T03:07:17.752Z,14.03
2023-01-25T03:09:44.350Z,14.83
2023-01-25T03:12:10.937Z,14.90
2023-01-25T03:14:37.495Z,14.83
2023-01-25T03:17:04.725Z,15.83
2023-01-25T03:19:31.388Z,16.13
2023-01-25T03:21:58.976Z,16.37
2023-01-25T03:24:25.711Z,15.50
2023-01-25T03:27:10.855Z,13.63
2023-01-25T03:29:38.104Z,15.90
2023-01-25T03:32:05.186Z,15.73
2023-01-25T03:34:31.935Z,16.03
2023-01-25T03:36:58.540Z,16.07
2023-01-25T03:39:25.260Z,14.43
2023-01-25T03:41:51.821Z,17.13
2023-01-25T03:44:18.367Z,14.80
2023-01-25T03:46:45.102Z,13.63
2023-01-25T03:49:11.830Z,15.63
2023-01-25T03:51:38.587Z,16.27
2023-01-25T03:54:05.499Z,17.73
2023-01-25T03:56:32.068Z,16.97
2023-01-25T03:58:58.638Z,15.70
2023-01-25T04:01:25.369Z,16.13
2023-01-25T04:03:52.133Z,15.17
2023-01-25T04:06:18.689Z,16.90
2023-01-25T04:08:45.271Z,16.40
2023-01-25T04:11:11.852Z,17.80
2023-01-25T04:13:39.458Z,17.23
2023-01-25T04:16:08.101Z,17.63
2023-01-25T04:18:34.743Z,17.90
2023-01-25T04:21:01.413Z,17.10
2023-01-25T04:23:28.059Z,16.33
2023-01-25T04:25:59.221Z,16.50
2023-01-25T04:28:26.494Z,15.83
2023-01-25T04:30:57.501Z,17.13
2023-01-25T04:33:24.835Z,16.63
2023-01-25T04:35:51.696Z,18.27
2023-01-25T04:38:18.615Z,18.37
2023-01-25T04:40:45.505Z,17.47
2023-01-25T04:43:13.888Z,15.80
2023-01-25T04:45:40.535Z,17.77
2023-01-25T04:48:12.308Z,17.17
2023-01-25T04:50:43.041Z,19.13
2023-01-25T04:53:11.151Z,19.67
2023-01-25T04:55:37.777Z,18.80
2023-01-25T04:58:05.024Z,20.17
2023-01-25T05:00:32.389Z,19.07
2023-01-25T05:02:59.156Z,20.60
2023-01-25T05:05:25.769Z,18.17
2023-01-25T05:07:52.385Z,19.60
2023-01-25T05:10:19.010Z,21.50
2023-01-25T05:12:45.595Z,18.80
2023-01-25T05:15:12.529Z,18.60
2023-01-25T05:17:39.212Z,20.23
2023-01-25T05:20:06.264Z,18.00
2023-01-25T05:22:32.881Z,19.87
2023-01-25T05:24:59.460Z,16.93
2023-01-25T05:27:33.702Z,19.17
2023-01-25T05:30:00.420Z,19.47
2023-01-25T05:32:27.172Z,21.30
2023-01-25T05:34:53.777Z,20.10
2023-01-25T05:37:21.812Z,19.67
2023-01-25T05:39:48.561Z,21.60
2023-01-25T05:42:17.688Z,21.23
2023-01-25T05:44:47.097Z,19.03
2023-01-25T05:47:16.063Z,18.70
2023-01-25T05:49:42.705Z,21.23
2023-01-25T05:52:14.452Z,22.23
2023-01-25T05:54:41.336Z,19.00
2023-01-25T05:57:07.995Z,21.33
2023-01-25T05:59:34.569Z,19.13
2023-01-25T06:02:01.300Z,20.77
2023-01-25T06:04:27.990Z,22.30
2023-01-25T06:06:54.597Z,21.17
2023-01-25T06:09:22.314Z,22.37
2023-01-25T06:11:49.325Z,22.67
2023-01-25T06:14:15.941Z,20.93
2023-01-25T06:16:42.571Z,18.93
2023-01-25T06:19:09.118Z,16.80
2023-01-25T06:21:37.004Z,19.13
2023-01-25T06:24:05.161Z,16.33
2023-01-25T06:26:31.862Z,14.03
2023-01-25T06:28:58.576Z,15.03
2023-01-25T06:31:25.662Z,13.40
2023-01-25T06:33:52.735Z,13.40
2023-01-25T06:36:21.182Z,16.10
2023-01-25T06:38:51.820Z,14.70
2023-01-25T06:41:19.221Z,11.97
2023-01-25T06:43:46.841Z,11.57
2023-01-25T06:46:13.850Z,11.67
2023-01-25T06:48:42.798Z,14.13
2023-01-25T06:51:12.011Z,12.13
2023-01-25T06:53:41.438Z,12.27
2023-01-25T06:56:13.710Z,12.63
2023-01-25T06:58:41.107Z,12.63
2023-01-25T07:01:15.510Z,12.80
2023-01-25T07:03:42.720Z,12.30
2023-01-25T07:06:10.962Z,16.47
2023-01-25T07:08:38.105Z,12.50
2023-01-25T07:11:07.160Z,15.73
2023-01-25T07:13:34.330Z,12.37
2023-01-25T07:16:03.862Z,12.43
2023-01-25T07:18:31.582Z,13.63
2023-01-25T07:21:06.485Z,15.00
2023-01-25T07:23:34.468Z,14.17
2023-01-25T07:26:02.021Z,14.20
2023-01-25T07:28:28.905Z,16.63
2023-01-25T07:30:55.499Z,16.07
2023-01-25T07:33:22.086Z,15.37
2023-01-25T07:35:50.806Z,14.80
2023-01-25T07:38:17.747Z,16.23
2023-01-25T07:40:50.825Z,18.67
2023-01-25T07:43:17.374Z,15.90
2023-01-25T07:45:48.554Z,16.43
2023-01-25T07:48:17.031Z,20.07
2023-01-25T07:50:46.470Z,16.67
2023-01-25T07:53:13.768Z,16.33
2023-01-25T07:55:40.329Z,18.73
2023-01-25T07:58:06.946Z,19.27
2023-01-25T08:00:33.536Z,16.27
2023-01-25T08:03:00.090Z,18.07
2023-01-25T08:05:26.649Z,16.70
2023-01-25T08:07:53.284Z,17.17
2023-01-25T08:10:19.854Z,19.50
2023-01-25T08:12:46.727Z,18.83
2023-01-25T08:15:14.321Z,21.70
2023-01-25T08:17:41.064Z,20.23
2023-01-25T08:20:08.788Z,20.83
2023-01-25T08:22:35.745Z,18.10
2023-01-25T08:25:03.447Z,22.10
2023-01-25T08:27:30.088Z,19.53
2023-01-25T08:29:56.710Z,19.17
2023-01-25T08:32:23.511Z,21.73
2023-01-25T08:34:50.169Z,25.10
2023-01-25T08:37:16.767Z,23.60
2023-01-25T08:39:43.381Z,24.63
2023-01-25T08:42:10.016Z,21.77
2023-01-25T08:44:36.597Z,23.77
2023-01-25T08:47:03.164Z,25.17
2023-01-25T08:49:31.106Z,25.10
2023-01-25T08:51:58.425Z,21.37
2023-01-25T08:54:25.071Z,20.47
2023-01-25T08:56:52.000Z,21.63
2023-01-25T08:59:18.630Z,21.47
2023-01-25T09:01:45.269Z,21.20
2023-01-25T09:04:11.824Z,21.10
2023-01-25T09:06:38.777Z,23.10
2023-01-25T09:09:05.500Z,21.90
2023-01-25T09:11:34.469Z,21.43
2023-01-25T09:14:01.026Z,18.83
2023-01-25T09:16:30.630Z,19.90
2023-01-25T09:18:58.932Z,20.97
2023-01-25T09:21:26.125Z,20.10
2023-01-25T09:24:09.126Z,21.70
2023-01-25T09:26:38.945Z,23.27
2023-01-25T09:29:07.694Z,19.67
2023-01-25T09:31:34.929Z,18.87
2023-01-25T09:34:02.011Z,22.13
2023-01-25T09:36:28.576Z,20.03
2023-01-25T09:38:56.697Z,19.63
2023-01-25T09:41:41.999Z,20.17
2023-01-25T09:44:36.423Z,21.07
2023-01-25T09:47:18.306Z,24.67
2023-01-25T09:50:19.895Z,26.50
2023-01-25T09:53:16.027Z,22.47
2023-01-25T09:55:43.300Z,25.07
2023-01-25T09:58:19.264Z,22.97
2023-01-25T10:00:48.138Z,23.20
2023-01-25T10:03:42.763Z,22.57
2023-01-25T10:06:13.763Z,21.10
2023-01-25T10:09:23.303Z,22.03
2023-01-25T10:11:50.073Z,20.90
2023-01-25T10:14:21.612Z,21.33
2023-01-25T10:16:48.186Z,22.20
2023-01-25T10:19:40.823Z,19.87
2023-01-25T10:22:16.130Z,19.23
2023-01-25T10:25:12.138Z,21.80
2023-01-25T10:28:03.729Z,21.63
2023-01-25T10:30:46.215Z,22.80
2023-01-25T10:33:19.675Z,21.53
2023-01-25T10:35:48.525Z,20.83
2023-01-25T10:38:27.935Z,18.47
2023-01-25T10:41:02.438Z,16.70
2023-01-25T10:43:29.259Z,18.93
2023-01-25T10:45:55.873Z,19.97
2023-01-25T10:48:29.067Z,26.63
2023-01-25T10:50:57.472Z,20.23
2023-01-25T10:53:36.392Z,23.47
2023-01-25T10:56:09.189Z,23.43
2023-01-25T10:58:38.716Z,22.93
2023-01-25T11:01:08.042Z,21.43
2023-01-25T11:03:36.253Z,24.03
2023-01-25T11:06:03.005Z,19.57
2023-01-25T11:08:42.089Z,19.60
2023-01-25T11:11:23.009Z,19.97
2023-01-25T11:13:49.844Z,24.67
2023-01-25T11:16:29.951Z,24.23
2023-01-25T11:18:58.898Z,29.70
2023-01-25T11:21:33.925Z,26.00
2023-01-25T11:24:06.705Z,27.27
2023-01-25T11:26:36.276Z,26.03
2023-01-25T11:29:17.664Z,25.97
2023-01-25T11:31:49.904Z,25.97
2023-01-25T11:34:19.314Z,26.77
2023-01-25T11:37:06.706Z,25.27
2023-01-25T11:39:46.681Z,27.90
2023-01-25T11:42:33.200Z,24.67
2023-01-25T11:45:36.149Z,23.47
2023-01-25T11:48:20.301Z,25.73
2023-01-25T11:51:18.677Z,24.03
2023-01-25T11:54:06.280Z,25.00
2023-01-25T11:56:50.456Z,25.30
2023-01-25T12:00:03.634Z,25.33
2023-01-25T12:02:46.788Z,24.97
2023-01-25T12:05:42.783Z,27.17
2023-01-25T12:08:46.306Z,28.23
2023-01-25T12:11:34.764Z,27.20
2023-01-25T12:14:26.398Z,27.47
2023-01-25T12:17:21.977Z,28.53
2023-01-25T12:20:18.713Z,30.07
2023-01-25T12:23:20.496Z,31.47
2023-01-25T12:26:15.989Z,30.87
2023-01-25T12:28:48.237Z,30.10
2023-01-25T12:31:25.377Z,28.30
2023-01-25T12:34:11.456Z,27.23
2023-01-25T12:36:43.899Z,26.90
2023-01-25T12:39:30.229Z,29.90
2023-01-25T12:42:18.525Z,24.77
2023-01-25T12:44:56.667Z,27.30
2023-01-25T12:47:33.035Z,29.77
2023-01-25T12:50:09.473Z,32.83
2023-01-25T12:52:42.478Z,29.03
2023-01-25T12:55:17.192Z,32.80
2023-01-25T12:58:14.733Z,33.03
2023-01-25T13:00:53.150Z,29.67
2023-01-25T13:03:33.472Z,31.43
2023-01-25T13:06:19.073Z,32.90
2023-01-25T13:09:04.519Z,30.13
2023-01-25T13:11:38.876Z,29.83
2023-01-25T13:14:20.452Z,29.53
2023-01-25T13:17:08.453Z,30.80
2023-01-25T13:19:39.575Z,33.37
2023-01-25T13:22:06.549Z,33.73
2023-01-25T13:24:35.266Z,32.73
2023-01-25T13:27:24.730Z,35.50
2023-01-25T13:30:34.088Z,32.80
2023-01-25T13:33:07.046Z,34.33
2023-01-25T13:35:36.720Z,30.23
2023-01-25T13:38:32.050Z,33.33
2023-01-25T13:41:04.553Z,32.47
2023-01-25T13:43:31.417Z,32.67
2023-01-25T13:45:57.997Z,36.77
2023-01-25T13:48:28.517Z,35.50
2023-01-25T13:51:00.278Z,32.30
2023-01-25T13:53:31.727Z,32.87
2023-01-25T13:55:58.744Z,29.00
2023-01-25T13:58:33.894Z,29.17
2023-01-25T14:01:06.769Z,29.67
2023-01-25T14:03:48.521Z,29.00
2023-01-25T14:06:25.112Z,29.07
2023-01-25T14:08:54.581Z,25.67
2023-01-25T14:11:23.735Z,29.40
2023-01-25T14:14:04.012Z,27.70
2023-01-25T14:16:31.940Z,25.50
2023-01-25T14:19:26.006Z,24.53
2023-01-25T14:22:11.479Z,27.43
2023-01-25T14:24:38.189Z,25.93
2023-01-25T14:27:05.769Z,28.30
2023-01-25T14:29:35.330Z,27.23
2023-01-25T14:32:04.020Z,28.93
2023-01-25T14:34:30.740Z,26.27
2023-01-25T14:37:20.569Z,29.20
2023-01-25T14:39:49.118Z,28.23
2023-01-25T14:42:17.038Z,26.77
2023-01-25T14:44:44.664Z,25.27
2023-01-25T14:47:31.406Z,25.73
2023-01-25T14:50:33.326Z,25.20
2023-01-25T14:53:08.545Z,22.80
2023-01-25T14:55:36.293Z,21.93
2023-01-25T14:58:03.275Z,22.50
2023-01-25T15:00:34.694Z,23.83
2023-01-25T15:03:04.842Z,22.97
2023-01-25T15:05:35.920Z,25.60
2023-01-25T15:08:08.513Z,22.40
2023-01-25T15:10:37.140Z,25.00
2023-01-25T15:13:18.888Z,24.30
2023-01-25T15:15:57.736Z,23.53
2023-01-25T15:18:41.878Z,23.00
2023-01-25T15:21:14.316Z,23.83
2023-01-25T15:23:43.098Z,22.27
2023-01-25T15:26:14.199Z,21.53
2023-01-25T15:28:40.782Z,25.00
2023-01-25T15:31:11.285Z,22.97
2023-01-25T15:33:39.104Z,24.00
2023-01-25T15:36:05.849Z,23.07
2023-01-25T15:38:32.484Z,22.67
2023-01-25T15:41:01.391Z,26.30
2023-01-25T15:43:28.575Z,25.13
2023-01-25T15:45:57.465Z,25.50
2023-01-25T15:48:30.921Z,25.93
2023-01-25T15:50:57.607Z,24.03
2023-01-25T15:53:24.636Z,23.93
2023-01-25T15:55:58.571Z,25.60
2023-01-25T15:58:31.646Z,29.03
2023-01-25T16:01:00.032Z,22.93
2023-01-25T16:03:27.539Z,24.53
2023-01-25T16:05:58.934Z,24.20
2023-01-25T16:08:25.512Z,23.17
2023-01-25T16:10:52.251Z,20.80
2023-01-25T16:13:18.817Z,22.17
2023-01-25T16:15:49.692Z,22.47
2023-01-25T16:18:16.258Z,25.67
2023-01-25T16:20:43.595Z,25.23
2023-01-25T16:23:11.922Z,23.77
2023-01-25T16:25:41.090Z,22.97
2023-01-25T16:28:14.503Z,24.33
2023-01-25T16:30:41.627Z,26.67
2023-01-25T16:33:08.233Z,25.67
2023-01-25T16:35:34.784Z,24.70
2023-01-25T16:38:01.393Z,26.10
2023-01-25T16:40:36.628Z,26.47
2023-01-25T16:43:04.156Z,27.43
2023-01-25T16:45:31.417Z,26.53
2023-01-25T16:47:58.011Z,23.20
2023-01-25T16:50:24.704Z,24.40
2023-01-25T16:52:51.740Z,24.43
2023-01-25T16:55:19.395Z,24.93
2023-01-25T16:57:50.030Z,24.20
2023-01-25T17:00:17.636Z,22.03
2023-01-25T17:02:58.336Z,24.70
2023-01-25T17:05:29.016Z,22.63
2023-01-25T17:07:55.907Z,24.10
2023-01-25T17:10:22.588Z,23.67
2023-01-25T17:12:49.770Z,25.90
2023-01-25T17:15:19.815Z,25.87
2023-01-25T17:17:46.546Z,28.00
2023-01-25T17:20:13.179Z,27.73
2023-01-25T17:22:40.882Z,25.33
2023-01-25T17:25:07.711Z,27.27
2023-01-25T17:27:34.312Z,28.63
2023-01-25T17:30:00.910Z,26.93
2023-01-25T17:32:28.621Z,29.43
2023-01-25T17:34:58.881Z,26.33
2023-01-25T17:37:25.744Z,25.23
2023-01-25T17:39:52.403Z,27.90
2023-01-25T17:42:19.021Z,25.00
2023-01-25T17:44:45.582Z,27.27
2023-01-25T17:47:12.131Z,22.67
2023-01-25T17:49:38.682Z,25.80
2023-01-25T17:52:05.340Z,25.93
2023-01-25T17:54:31.973Z,24.97
2023-01-25T17:56:58.664Z,27.07
2023-01-25T17:59:25.287Z,24.47
2023-01-25T18:01:52.127Z,22.87
2023-01-25T18:04:20.320Z,24.87
2023-01-25T18:06:46.935Z,22.07
2023-01-25T18:09:13.626Z,21.67
2023-01-25T18:11:40.834Z,23.23
2023-01-25T18:14:10.691Z,22.27
2023-01-25T18:16:39.198Z,21.53
2023-01-25T18:19:06.480Z,21.90
2023-01-25T18:21:33.677Z,23.90
2023-01-25T18:24:07.856Z,24.87
2023-01-25T18:26:36.975Z,20.10
2023-01-25T18:29:45.416Z,19.17
2023-01-25T18:32:12.399Z,22.13
2023-01-25T18:34:41.247Z,21.83
2023-01-25T18:37:18.245Z,21.50
2023-01-25T18:39:50.098Z,25.30
2023-01-25T18:42:17.427Z,19.10
2023-01-25T18:44:48.067Z,22.07
2023-01-25T18:47:18.504Z,28.27
2023-01-25T18:49:49.808Z,24.57
2023-01-25T18:52:18.243Z,22.47
2023-01-25T18:54:45.435Z,25.53
2023-01-25T18:57:13.231Z,23.87
2023-01-25T18:59:40.731Z,21.47
2023-01-25T19:02:09.687Z,23.40
2023-01-25T19:04:36.325Z,28.13
2023-01-25T19:07:03.014Z,24.83
2023-01-25T19:09:30.138Z,22.57
2023-01-25T19:12:00.028Z,21.17
2023-01-25T19:14:28.222Z,23.03
2023-01-25T19:16:54.824Z,21.13
2023-01-25T19:19:24.523Z,23.37
2023-01-25T19:21:51.153Z,20.33
2023-01-25T19:24:22.708Z,22.10
2023-01-25T19:26:49.549Z,21.97
2023-01-25T19:29:16.544Z,24.10
2023-01-25T19:31:43.225Z,22.20
2023-01-25T19:34:09.900Z,27.53
2023-01-25T19:36:38.314Z,25.47
2023-01-25T19:39:09.940Z,26.93
2023-01-25T19:41:38.641Z,24.60
2023-01-25T19:44:10.455Z,27.40
2023-01-25T19:46:37.590Z,34.27
2023-01-25T19:49:06.779Z,23.80
2023-01-25T19:51:36.030Z,26.37
2023-01-25T19:54:17.403Z,26.23
2023-01-25T19:56:46.805Z,26.30
2023-01-25T19:59:21.620Z,28.57
2023-01-25T20:01:48.782Z,29.40
2023-01-25T20:04:20.928Z,22.57
2023-01-25T20:06:48.683Z,25.93
2023-01-25T20:09:17.363Z,25.30
2023-01-25T20:11:56.699Z,22.70
2023-01-25T20:14:23.677Z,29.20
2023-01-25T20:16:52.642Z,29.67
2023-01-25T20:19:20.053Z,27.87
2023-01-25T20:21:46.701Z,26.23
2023-01-25T20:24:13.484Z,24.70
2023-01-25T20:26:42.983Z,25.53
2023-01-25T20:29:11.146Z,24.23
2023-01-25T20:31:43.354Z,24.40
2023-01-25T20:34:16.054Z,24.40
2023-01-25T20:36:43.293Z,21.77
2023-01-25T20:39:13.245Z,19.63
2023-01-25T20:41:39.829Z,22.67
2023-01-25T20:44:10.033Z,18.63
2023-01-25T20:46:38.599Z,18.33
2023-01-25T20:49:07.624Z,18.10
2023-01-25T20:51:35.049Z,15.90
2023-01-25T20:54:01.939Z,18.07
2023-01-25T20:56:28.544Z,19.80
2023-01-25T20:58:55.102Z,18.43
2023-01-25T21:01:24.102Z,21.93
2023-01-25T21:03:54.285Z,18.10
2023-01-25T21:06:20.873Z,15.83
2023-01-25T21:08:47.622Z,18.47
2023-01-25T21:11:17.119Z,19.70
2023-01-25T21:13:43.775Z,17.60
2023-01-25T21:16:13.065Z,18.27
2023-01-25T21:18:45.036Z,19.50
2023-01-25T21:21:13.975Z,21.43
2023-01-25T21:23:42.753Z,17.20
2023-01-25T21:26:14.277Z,22.70
2023-01-25T21:28:41.083Z,19.47
2023-01-25T21:31:17.297Z,18.37
2023-01-25T21:33:44.530Z,19.53
2023-01-25T21:36:15.596Z,19.30
2023-01-25T21:38:43.872Z,20.10
2023-01-25T21:41:16.317Z,18.37
2023-01-25T21:44:01.811Z,17.33
2023-01-25T21:46:28.537Z,18.73
2023-01-25T21:49:18.817Z,20.03
2023-01-25T21:51:50.893Z,18.13
2023-01-25T21:54:19.420Z,19.93
2023-01-25T21:56:47.909Z,19.83
2023-01-25T21:59:15.463Z,16.77
2023-01-25T22:01:45.787Z,18.93
2023-01-25T22:04:14.576Z,19.43
2023-01-25T22:06:41.631Z,21.40
2023-01-25T22:09:08.924Z,19.00
2023-01-25T22:11:36.323Z,18.33
2023-01-25T22:14:03.085Z,18.67
2023-01-25T22:16:30.224Z,18.20
2023-01-25T22:18:56.971Z,18.97
2023-01-25T22:21:27.172Z,19.40
2023-01-25T22:23:54.026Z,19.70
2023-01-25T22:26:24.403Z,20.53
2023-01-25T22:28:52.379Z,16.03
2023-01-25T22:31:23.839Z,18.07
2023-01-25T22:33:51.662Z,18.47
2023-01-25T22:36:20.380Z,17.13
2023-01-25T22:38:47.545Z,18.17
2023-01-25T22:41:20.314Z,17.83
2023-01-25T22:43:46.950Z,17.57
2023-01-25T22:46:17.769Z,20.30
2023-01-25T22:48:45.207Z,20.73
2023-01-25T22:51:14.912Z,21.03
2023-01-25T22:53:41.892Z,24.13
2023-01-25T22:56:18.451Z,25.90
2023-01-25T22:58:46.815Z,22.50
2023-01-25T23:01:19.289Z,20.53
2023-01-25T23:03:46.015Z,19.17
2023-01-25T23:06:15.020Z,20.80
2023-01-25T23:08:42.592Z,18.13
2023-01-25T23:11:12.702Z,20.07
2023-01-25T23:13:39.885Z,17.70
2023-01-25T23:16:08.900Z,19.20
2023-01-25T23:18:51.499Z,17.57
2023-01-25T23:21:20.495Z,18.40
2023-01-25T23:23:47.660Z,15.57
2023-01-25T23:26:15.532Z,17.80
2023-01-25T23:28:43.056Z,15.53
2023-01-25T23:31:18.308Z,15.63
2023-01-25T23:33:50.451Z,17.10
2023-01-25T23:36:19.987Z,16.30
2023-01-25T23:38:47.288Z,16.53
2023-01-25T23:41:15.057Z,17.40
2023-01-25T23:43:43.364Z,20.63
2023-01-25T23:46:10.141Z,16.93
2023-01-25T23:48:36.886Z,18.70
2023-01-25T23:51:03.733Z,19.87
2023-01-25T23:53:33.277Z,18.20
2023-01-25T23:56:06.473Z,16.33
2023-01-25T23:58:35.453Z,18.70
